createdAt,value
2018-10-21T00:01:38.440Z,16.50
2018-10-21T00:04:08.315Z,15.70
2018-10-21T00:06:38.285Z,17.30
2018-10-21T00:09:11.779Z,17.17
2018-10-21T00:11:41.675Z,16.67
2018-10-21T00:14:11.778Z,17.37
2018-10-21T00:16:42.217Z,15.90
2018-10-21T00:19:12.204Z,16.60
2018-10-21T00:21:42.166Z,16.13
2018-10-21T00:24:12.346Z,15.73
2018-10-21T00:26:42.812Z,14.50
2018-10-21T00:29:12.760Z,13.57
2018-10-21T00:31:42.722Z,12.67
2018-10-21T00:34:12.682Z,12.53
2018-10-21T00:36:42.655Z,14.07
2018-10-21T00:39:14.076Z,11.37
2018-10-21T00:41:44.548Z,12.90
2018-10-21T00:44:14.646Z,12.47
2018-10-21T00:46:45.717Z,12.83
2018-10-21T00:49:15.788Z,12.80
2018-10-21T00:51:45.694Z,14.10
2018-10-21T00:54:16.782Z,14.60
2018-10-21T00:56:48.278Z,14.37
2018-10-21T00:59:18.723Z,13.87
2018-10-21T01:01:48.803Z,13.83
2018-10-21T01:04:18.711Z,12.77
2018-10-21T01:06:48.861Z,13.37
2018-10-21T01:09:18.845Z,12.27
2018-10-21T01:11:48.906Z,12.33
2018-10-21T01:14:18.889Z,13.60
2018-10-21T01:16:49.565Z,15.10
2018-10-21T01:19:19.465Z,14.90
2018-10-21T01:21:49.495Z,15.83
2018-10-21T01:24:19.485Z,13.93
2018-10-21T01:26:49.719Z,14.00
2018-10-21T01:29:19.630Z,13.33
2018-10-21T01:31:49.626Z,14.10
2018-10-21T01:34:19.694Z,26.43
2018-10-21T01:36:50.736Z,37.10
2018-10-21T01:40:32.976Z,16.40
2018-10-21T01:43:03.637Z,17.00
2018-10-21T01:45:33.666Z,14.97
2018-10-21T01:48:04.762Z,13.40
2018-10-21T01:50:34.838Z,13.10
2018-10-21T01:53:06.007Z,12.60
2018-10-21T01:55:36.680Z,13.43
2018-10-21T01:58:07.198Z,14.60
2018-10-21T02:00:39.103Z,13.53
2018-10-21T02:03:09.379Z,12.70
2018-10-21T02:05:40.547Z,11.47
2018-10-21T02:08:10.556Z,11.17
2018-10-21T02:10:40.427Z,10.83
2018-10-21T02:13:10.573Z,10.63
2018-10-21T02:15:40.761Z,10.30
2018-10-21T02:18:10.740Z,9.13
2018-10-21T02:20:40.699Z,10.17
2018-10-21T02:23:10.670Z,10.20
2018-10-21T02:25:41.536Z,10.90
2018-10-21T02:28:11.622Z,10.33
2018-10-21T02:30:41.593Z,9.60
2018-10-21T02:33:11.810Z,9.77
2018-10-21T02:35:42.713Z,10.00
2018-10-21T02:38:12.674Z,11.43
2018-10-21T02:41:54.205Z,12.47
2018-10-21T02:44:24.628Z,11.07
2018-10-21T02:46:55.820Z,13.00
2018-10-21T02:49:25.751Z,14.70
2018-10-21T02:52:00.806Z,13.70
2018-10-21T02:54:31.836Z,13.30
2018-10-21T02:57:01.872Z,14.70
2018-10-21T02:59:32.050Z,13.27
2018-10-21T03:02:02.327Z,12.90
2018-10-21T03:04:32.287Z,12.87
2018-10-21T03:07:02.327Z,12.70
2018-10-21T03:09:32.609Z,15.03
2018-10-21T03:12:02.578Z,13.97
2018-10-21T03:14:32.972Z,14.13
2018-10-21T03:17:02.946Z,14.23
2018-10-21T03:19:32.963Z,14.50
2018-10-21T03:22:02.920Z,14.67
2018-10-21T03:24:33.009Z,13.13
2018-10-21T03:27:03.057Z,13.27
2018-10-21T03:29:32.996Z,13.10
2018-10-21T03:32:02.941Z,14.53
2018-10-21T03:34:33.053Z,12.13
2018-10-21T03:37:03.024Z,13.70
2018-10-21T03:39:32.987Z,11.87
2018-10-21T03:42:02.998Z,12.47
2018-10-21T03:44:33.808Z,10.67
2018-10-21T03:47:03.840Z,13.10
2018-10-21T03:49:33.719Z,11.77
2018-10-21T03:52:03.756Z,12.00
2018-10-21T03:54:34.497Z,10.40
2018-10-21T03:57:04.511Z,11.80
2018-10-21T03:59:34.494Z,10.63
2018-10-21T04:02:04.727Z,11.27
2018-10-21T04:04:35.465Z,11.43
2018-10-21T04:07:05.419Z,10.87
2018-10-21T04:09:35.443Z,10.20
2018-10-21T04:12:05.468Z,10.50
2018-10-21T04:14:36.434Z,11.13
2018-10-21T04:17:06.484Z,11.37
2018-10-21T04:19:36.444Z,11.20
2018-10-21T04:22:06.667Z,10.50
2018-10-21T04:24:37.720Z,11.10
2018-10-21T04:27:07.681Z,10.60
2018-10-21T04:29:37.652Z,11.90
2018-10-21T04:32:07.754Z,11.70
2018-10-21T04:34:38.908Z,12.80
2018-10-21T04:37:19.375Z,12.63
2018-10-21T04:40:00.101Z,10.40
2018-10-21T04:42:30.089Z,9.93
2018-10-21T04:45:00.405Z,10.80
2018-10-21T04:47:31.008Z,10.57
2018-10-21T04:50:01.107Z,9.40
2018-10-21T04:52:31.993Z,10.17
2018-10-21T04:55:06.285Z,10.50
2018-10-21T04:57:37.153Z,11.10
2018-10-21T05:00:09.753Z,11.73
2018-10-21T05:02:39.879Z,12.00
2018-10-21T05:05:11.818Z,11.67
2018-10-21T05:07:42.202Z,11.30
2018-10-21T05:10:23.931Z,11.87
2018-10-21T05:12:53.922Z,12.73
2018-10-21T05:15:25.915Z,13.87
2018-10-21T05:17:56.023Z,12.40
2018-10-21T05:20:26.053Z,12.43
2018-10-21T05:22:56.279Z,14.00
2018-10-21T05:25:27.269Z,13.20
2018-10-21T05:27:57.394Z,12.87
2018-10-21T05:30:27.491Z,15.17
2018-10-21T05:32:57.414Z,22.23
2018-10-21T05:35:28.350Z,21.07
2018-10-21T05:37:58.459Z,17.67
2018-10-21T05:40:28.692Z,17.87
2018-10-21T05:42:58.748Z,16.17
2018-10-21T05:45:29.053Z,15.07
2018-10-21T05:47:59.207Z,15.67
2018-10-21T05:50:29.275Z,13.90
2018-10-21T05:52:59.396Z,24.80
2018-10-21T05:55:29.560Z,17.80
2018-10-21T05:57:59.782Z,17.23
2018-10-21T06:00:29.719Z,13.87
2018-10-21T06:03:00.047Z,16.60
2018-10-21T06:05:42.038Z,17.27
2018-10-21T06:08:12.287Z,16.93
2018-10-21T06:10:43.104Z,20.20
2018-10-21T06:13:13.463Z,20.67
2018-10-21T06:15:44.531Z,20.27
2018-10-21T06:18:18.556Z,17.67
2018-10-21T06:20:52.996Z,16.93
2018-10-21T06:23:23.112Z,14.57
2018-10-21T06:25:55.181Z,15.43
2018-10-21T06:28:25.343Z,15.73
2018-10-21T06:30:55.562Z,17.77
2018-10-21T06:33:25.681Z,22.73
2018-10-21T06:35:56.586Z,19.07
2018-10-21T06:38:26.629Z,18.30
2018-10-21T06:40:56.826Z,17.60
2018-10-21T06:43:30.527Z,19.37
2018-10-21T06:46:00.688Z,22.50
2018-10-21T06:48:30.799Z,22.60
2018-10-21T06:51:00.936Z,20.73
2018-10-21T06:53:30.951Z,17.83
2018-10-21T06:56:01.868Z,15.37
2018-10-21T06:58:31.896Z,13.37
2018-10-21T07:01:02.007Z,12.63
2018-10-21T07:03:32.197Z,14.00
2018-10-21T07:06:22.762Z,12.83
2018-10-21T07:08:54.104Z,12.63
2018-10-21T07:11:24.118Z,13.97
2018-10-21T07:13:54.124Z,16.03
2018-10-21T07:16:24.956Z,16.87
2018-10-21T07:18:54.974Z,16.50
2018-10-21T07:21:25.042Z,31.70
2018-10-21T07:23:55.015Z,18.07
2018-10-21T07:26:25.933Z,18.77
2018-10-21T07:28:55.952Z,20.30
2018-10-21T07:31:26.057Z,21.23
2018-10-21T07:33:56.015Z,25.50
2018-10-21T07:36:26.518Z,26.73
2018-10-21T07:38:56.436Z,26.30
2018-10-21T07:41:26.338Z,20.80
2018-10-21T07:43:56.445Z,16.17
2018-10-21T07:46:27.249Z,15.83
2018-10-21T07:48:57.461Z,14.07
2018-10-21T07:51:27.588Z,13.83
2018-10-21T07:53:57.612Z,15.10
2018-10-21T07:56:28.040Z,14.10
2018-10-21T07:58:58.031Z,13.50
2018-10-21T08:01:28.123Z,12.20
2018-10-21T08:03:58.415Z,13.00
2018-10-21T08:06:40.099Z,14.43
2018-10-21T08:09:11.960Z,12.77
2018-10-21T08:11:41.828Z,14.10
2018-10-21T08:14:11.845Z,14.20
2018-10-21T08:16:42.719Z,14.07
2018-10-21T08:19:12.783Z,15.30
2018-10-21T08:21:42.922Z,13.80
2018-10-21T08:24:12.911Z,14.63
2018-10-21T08:26:42.906Z,13.50
2018-10-21T08:29:12.849Z,14.27
2018-10-21T08:31:42.883Z,14.70
2018-10-21T08:34:12.905Z,14.37
2018-10-21T08:36:43.536Z,13.40
2018-10-21T08:39:13.491Z,15.10
2018-10-21T08:41:43.296Z,13.67
2018-10-21T08:44:13.325Z,13.83
2018-10-21T08:46:43.349Z,14.80
2018-10-21T08:49:13.444Z,12.80
2018-10-21T08:51:43.399Z,13.43
2018-10-21T08:54:13.389Z,12.27
2018-10-21T08:56:43.434Z,13.90
2018-10-21T08:59:13.411Z,13.00
2018-10-21T09:01:43.399Z,12.27
2018-10-21T09:04:13.773Z,13.37
2018-10-21T09:06:44.024Z,14.27
2018-10-21T09:09:13.990Z,12.73
2018-10-21T09:11:44.083Z,13.17
2018-10-21T09:14:14.494Z,12.27
2018-10-21T09:16:45.279Z,13.80
2018-10-21T09:19:15.387Z,14.93
2018-10-21T09:21:45.397Z,14.43
2018-10-21T09:24:15.380Z,13.20
2018-10-21T09:26:45.790Z,15.10
2018-10-21T09:29:15.877Z,15.10
2018-10-21T09:31:45.969Z,12.83
2018-10-21T09:34:16.199Z,14.87
2018-10-21T09:36:47.228Z,16.00
2018-10-21T09:39:17.181Z,14.53
2018-10-21T09:41:47.231Z,15.10
2018-10-21T09:44:17.308Z,15.93
2018-10-21T09:46:48.431Z,15.83
2018-10-21T09:49:18.659Z,17.10
2018-10-21T09:51:48.697Z,18.33
2018-10-21T09:54:18.775Z,17.00
2018-10-21T09:56:49.694Z,16.63
2018-10-21T09:59:19.695Z,17.50
2018-10-21T10:01:54.672Z,18.27
2018-10-21T10:04:24.925Z,18.17
2018-10-21T10:06:55.436Z,18.73
2018-10-21T10:09:25.458Z,17.17
2018-10-21T10:11:55.600Z,17.03
2018-10-21T10:14:25.664Z,18.00
2018-10-21T10:16:56.798Z,17.53
2018-10-21T10:19:26.859Z,18.80
2018-10-21T10:21:56.973Z,18.33
2018-10-21T10:24:26.973Z,20.30
2018-10-21T10:26:57.666Z,20.53
2018-10-21T10:29:27.591Z,21.23
2018-10-21T10:31:57.354Z,20.87
2018-10-21T10:34:27.316Z,19.93
2018-10-21T10:36:57.495Z,20.07
2018-10-21T10:39:27.580Z,21.03
2018-10-21T10:41:57.784Z,23.87
2018-10-21T10:44:27.693Z,21.83
2018-10-21T10:46:58.334Z,24.57
2018-10-21T10:49:28.294Z,23.77
2018-10-21T10:51:58.375Z,21.33
2018-10-21T10:54:28.455Z,25.67
2018-10-21T10:56:59.359Z,25.37
2018-10-21T10:59:29.487Z,25.30
2018-10-21T11:01:59.523Z,28.27
2018-10-21T11:04:29.651Z,30.13
2018-10-21T11:07:00.340Z,30.70
2018-10-21T11:09:30.403Z,41.70
2018-10-21T11:12:00.508Z,33.73
2018-10-21T11:14:30.609Z,34.37
2018-10-21T11:17:01.312Z,28.53
2018-10-21T11:19:31.278Z,39.60
2018-10-21T11:22:01.451Z,33.03
2018-10-21T11:24:31.450Z,31.50
2018-10-21T11:27:01.555Z,33.33
2018-10-21T11:29:31.656Z,36.30
2018-10-21T11:32:01.712Z,34.13
2018-10-21T11:34:31.638Z,32.50
2018-10-21T11:37:02.586Z,31.70
2018-10-21T11:39:32.711Z,33.73
2018-10-21T11:42:02.699Z,27.80
2018-10-21T11:44:32.548Z,30.83
2018-10-21T11:47:03.693Z,34.43
2018-10-21T11:49:33.741Z,31.70
2018-10-21T11:52:03.823Z,24.53
2018-10-21T11:54:33.890Z,28.20
2018-10-21T11:57:04.810Z,29.60
2018-10-21T11:59:34.802Z,26.53
2018-10-21T12:02:04.932Z,25.37
2018-10-21T12:04:35.006Z,27.00
2018-10-21T12:07:06.136Z,22.20
2018-10-21T12:09:35.983Z,21.90
2018-10-21T12:12:05.939Z,13.77
2018-10-21T12:14:35.806Z,12.60
2018-10-21T12:17:06.152Z,13.33
2018-10-21T12:19:36.121Z,13.07
2018-10-21T12:22:06.379Z,12.67
2018-10-21T12:24:36.233Z,12.03
2018-10-21T12:27:07.203Z,11.53
2018-10-21T12:29:36.976Z,14.23
2018-10-21T12:32:06.818Z,11.87
2018-10-21T12:34:36.815Z,12.53
2018-10-21T12:37:07.816Z,13.30
2018-10-21T12:39:37.826Z,14.90
2018-10-21T12:42:07.586Z,15.17
2018-10-21T12:44:37.508Z,12.20
2018-10-21T12:47:07.837Z,12.77
2018-10-21T12:49:37.886Z,14.40
2018-10-21T12:52:07.937Z,13.50
2018-10-21T12:54:37.936Z,11.30
2018-10-21T12:57:08.800Z,12.23
2018-10-21T12:59:38.653Z,11.70
2018-10-21T13:02:08.814Z,13.73
2018-10-21T13:04:39.049Z,13.77
2018-10-21T13:07:09.549Z,14.20
2018-10-21T13:09:39.528Z,14.00
2018-10-21T13:12:09.487Z,12.53
2018-10-21T13:14:39.294Z,13.87
2018-10-21T13:17:09.781Z,13.87
2018-10-21T13:19:39.738Z,13.60
2018-10-21T13:22:09.677Z,21.80
2018-10-21T13:24:39.565Z,21.27
2018-10-21T13:27:10.242Z,49.20
2018-10-21T13:29:40.166Z,16.70
2018-10-21T13:32:10.166Z,20.20
2018-10-21T13:34:40.269Z,19.30
2018-10-21T13:37:11.212Z,26.27
2018-10-21T13:39:41.248Z,16.27
2018-10-21T13:42:11.178Z,15.60
2018-10-21T13:44:41.792Z,52.83
2018-10-21T13:47:12.977Z,29.80
2018-10-21T13:49:44.647Z,54.40
2018-10-21T13:52:14.597Z,44.00
2018-10-21T13:54:44.394Z,30.13
2018-10-21T13:57:15.684Z,36.20
2018-10-21T13:59:45.645Z,51.47
2018-10-21T14:02:15.576Z,38.53
2018-10-21T14:04:45.691Z,28.70
2018-10-21T14:07:16.249Z,22.70
2018-10-21T14:09:46.246Z,22.13
2018-10-21T14:12:16.119Z,23.30
2018-10-21T14:14:46.082Z,25.17
2018-10-21T14:17:17.009Z,25.27
2018-10-21T14:19:46.871Z,25.60
2018-10-21T14:22:16.830Z,27.13
2018-10-21T14:24:46.597Z,27.17
2018-10-21T14:27:17.335Z,28.20
2018-10-21T14:29:47.330Z,30.87
2018-10-21T14:32:17.131Z,29.93
2018-10-21T14:34:47.288Z,33.40
2018-10-21T14:37:17.245Z,42.73
2018-10-21T14:39:47.135Z,45.03
2018-10-21T14:42:17.126Z,53.67
2018-10-21T14:44:46.978Z,37.33
2018-10-21T14:47:16.889Z,39.40
2018-10-21T14:49:46.736Z,41.50
2018-10-21T14:52:16.687Z,36.97
2018-10-21T14:54:46.565Z,35.97
2018-10-21T14:57:16.441Z,28.30
2018-10-21T14:59:46.359Z,26.43
2018-10-21T15:02:16.476Z,28.33
2018-10-21T15:04:46.389Z,26.80
2018-10-21T15:07:16.336Z,26.13
2018-10-21T15:09:46.202Z,28.80
2018-10-21T15:12:16.112Z,30.13
2018-10-21T15:14:45.729Z,30.17
2018-10-21T15:17:15.696Z,27.30
2018-10-21T15:19:45.532Z,29.40
2018-10-21T15:22:15.551Z,26.83
2018-10-21T15:24:45.353Z,29.40
2018-10-21T15:27:15.251Z,39.80
2018-10-21T15:29:45.140Z,28.90
2018-10-21T15:32:15.098Z,29.47
2018-10-21T15:34:45.125Z,29.20
2018-10-21T15:37:15.015Z,28.50
2018-10-21T15:39:45.266Z,32.50
2018-10-21T15:42:15.043Z,30.57
2018-10-21T15:44:44.896Z,29.10
2018-10-21T15:47:14.790Z,36.30
2018-10-21T15:49:44.799Z,42.47
2018-10-21T15:52:14.686Z,42.23
2018-10-21T15:54:44.616Z,41.77
2018-10-21T15:57:14.608Z,45.83
2018-10-21T15:59:44.546Z,54.53
2018-10-21T16:02:14.498Z,57.53
2018-10-21T16:04:44.422Z,49.60
2018-10-21T16:07:14.374Z,42.10
2018-10-21T16:09:44.445Z,42.50
2018-10-21T16:12:14.294Z,40.40
2018-10-21T16:14:44.188Z,37.40
2018-10-21T16:17:14.060Z,30.53
2018-10-21T16:19:44.076Z,32.40
2018-10-21T16:22:13.991Z,64.10
2018-10-21T16:24:43.708Z,40.83
2018-10-21T16:27:13.592Z,34.50
2018-10-21T16:29:43.499Z,32.70
2018-10-21T16:32:13.475Z,39.37
2018-10-21T16:34:43.372Z,31.70
2018-10-21T16:37:13.332Z,28.70
2018-10-21T16:39:43.209Z,29.47
2018-10-21T16:42:13.132Z,27.00
2018-10-21T16:44:42.954Z,32.40
2018-10-21T16:47:12.829Z,32.40
2018-10-21T16:49:42.664Z,34.30
2018-10-21T16:52:12.496Z,30.03
2018-10-21T16:54:42.476Z,28.20
2018-10-21T16:57:12.297Z,28.17
2018-10-21T16:59:42.185Z,30.10
2018-10-21T17:02:12.074Z,26.77
2018-10-21T17:04:41.942Z,24.73
2018-10-21T17:07:11.848Z,25.40
2018-10-21T17:09:41.893Z,29.77
2018-10-21T17:12:11.639Z,31.67
2018-10-21T17:14:41.436Z,28.53
2018-10-21T17:17:11.459Z,27.30
2018-10-21T17:19:41.344Z,29.17
2018-10-21T17:22:11.418Z,27.10
2018-10-21T17:24:41.143Z,24.20
2018-10-21T17:27:10.982Z,26.57
2018-10-21T17:29:40.718Z,24.90
2018-10-21T17:32:10.564Z,25.13
2018-10-21T17:34:40.400Z,28.07
2018-10-21T17:37:10.285Z,29.07
2018-10-21T17:39:40.245Z,25.53
2018-10-21T17:42:10.019Z,20.00
2018-10-21T17:44:39.843Z,26.53
2018-10-21T17:47:09.848Z,24.20
2018-10-21T17:49:39.869Z,39.23
2018-10-21T17:52:09.685Z,36.97
2018-10-21T17:54:39.335Z,40.60
2018-10-21T17:57:09.144Z,43.93
2018-10-21T17:59:39.136Z,40.63
2018-10-21T18:02:09.073Z,32.10
2018-10-21T18:04:38.797Z,27.00
2018-10-21T18:07:08.771Z,23.03
2018-10-21T18:09:38.677Z,25.20
2018-10-21T18:12:08.771Z,22.00
2018-10-21T18:14:38.487Z,23.00
2018-10-21T18:17:08.326Z,28.10
2018-10-21T18:19:38.225Z,25.70
2018-10-21T18:22:08.270Z,20.30
2018-10-21T18:24:38.013Z,21.83
2018-10-21T18:27:07.782Z,29.20
2018-10-21T18:29:37.704Z,25.17
2018-10-21T18:32:07.503Z,21.50
2018-10-21T18:34:37.476Z,23.37
2018-10-21T18:37:08.476Z,21.70
2018-10-21T18:39:38.362Z,24.70
2018-10-21T18:42:08.271Z,23.33
2018-10-21T18:44:38.204Z,38.77
2018-10-21T18:47:08.497Z,25.60
2018-10-21T18:49:38.339Z,26.23
2018-10-21T18:52:08.265Z,20.97
2018-10-21T18:54:38.127Z,20.30
2018-10-21T18:57:07.898Z,21.80
2018-10-21T18:59:37.721Z,22.00
2018-10-21T19:02:07.854Z,22.23
2018-10-21T19:04:37.689Z,21.33
2018-10-21T19:07:08.230Z,21.30
2018-10-21T19:09:38.040Z,22.40
2018-10-21T19:12:08.510Z,26.60
2018-10-21T19:14:38.506Z,30.87
2018-10-21T19:17:09.163Z,31.10
2018-10-21T19:19:38.853Z,25.43
2018-10-21T19:22:08.861Z,18.13
2018-10-21T19:24:38.600Z,25.10
2018-10-21T19:27:08.558Z,26.23
2018-10-21T19:29:38.411Z,29.20
2018-10-21T19:32:08.570Z,28.20
2018-10-21T19:34:38.534Z,24.83
2018-10-21T19:37:08.407Z,20.33
2018-10-21T19:39:38.257Z,20.30
2018-10-21T19:42:08.537Z,19.70
2018-10-21T19:44:38.418Z,18.00
2018-10-21T19:47:08.191Z,18.97
2018-10-21T19:49:38.122Z,19.57
2018-10-21T19:52:07.990Z,23.60
2018-10-21T19:54:37.991Z,30.67
2018-10-21T19:57:07.874Z,36.13
2018-10-21T19:59:37.701Z,39.13
2018-10-21T20:02:07.800Z,26.80
2018-10-21T20:04:37.608Z,34.90
2018-10-21T20:07:07.605Z,27.33
2018-10-21T20:09:37.860Z,28.80
2018-10-21T20:12:07.806Z,24.07
2018-10-21T20:14:37.825Z,20.60
2018-10-21T20:17:07.850Z,20.70
2018-10-21T20:19:37.888Z,21.57
2018-10-21T20:22:10.719Z,17.80
2018-10-21T20:24:40.865Z,20.10
2018-10-21T20:27:10.983Z,18.63
2018-10-21T20:29:40.786Z,22.10
2018-10-21T20:32:10.692Z,19.27
2018-10-21T20:34:40.431Z,18.73
2018-10-21T20:37:10.274Z,18.97
2018-10-21T20:39:40.166Z,18.30
2018-10-21T20:42:10.201Z,18.87
2018-10-21T20:44:40.075Z,24.77
2018-10-21T20:47:09.908Z,22.10
2018-10-21T20:49:40.318Z,24.40
2018-10-21T20:52:10.683Z,20.70
2018-10-21T20:54:47.064Z,20.00
2018-10-21T20:57:18.217Z,22.70
2018-10-21T20:59:48.613Z,18.63
2018-10-21T21:02:18.378Z,19.70
2018-10-21T21:04:48.336Z,17.20
2018-10-21T21:07:19.007Z,15.60
2018-10-21T21:09:48.975Z,16.77
2018-10-21T21:12:18.884Z,15.03
2018-10-21T21:14:48.716Z,15.13
2018-10-21T21:17:18.762Z,12.80
2018-10-21T21:19:48.531Z,15.13
2018-10-21T21:22:18.569Z,13.77
2018-10-21T21:24:48.358Z,13.47
2018-10-21T21:27:18.139Z,14.23
2018-10-21T21:29:48.009Z,15.03
2018-10-21T21:32:17.947Z,16.63
2018-10-21T21:34:47.844Z,18.07
2018-10-21T21:37:17.767Z,18.50
2018-10-21T21:39:47.587Z,20.47
2018-10-21T21:42:17.374Z,18.47
2018-10-21T21:44:47.267Z,18.20
2018-10-21T21:47:17.099Z,19.63
2018-10-21T21:49:47.047Z,19.17
2018-10-21T21:52:16.958Z,21.23
2018-10-21T21:54:46.836Z,20.17
2018-10-21T21:57:16.791Z,21.63
2018-10-21T21:59:46.630Z,22.20
2018-10-21T22:02:16.280Z,20.00
2018-10-21T22:04:46.157Z,19.93
2018-10-21T22:07:15.957Z,19.30
2018-10-21T22:09:45.866Z,18.90
2018-10-21T22:12:15.735Z,19.27
2018-10-21T22:14:45.499Z,19.57
2018-10-21T22:17:15.291Z,17.90
2018-10-21T22:19:45.242Z,17.53
2018-10-21T22:22:15.300Z,14.70
2018-10-21T22:24:45.097Z,15.57
2018-10-21T22:27:15.014Z,14.40
2018-10-21T22:29:45.007Z,14.73
2018-10-21T22:32:14.794Z,14.90
2018-10-21T22:34:44.618Z,15.07
2018-10-21T22:37:14.548Z,14.83
2018-10-21T22:39:44.363Z,15.87
2018-10-21T22:42:14.351Z,14.93
2018-10-21T22:44:44.173Z,14.20
2018-10-21T22:47:13.987Z,13.80
2018-10-21T22:49:43.904Z,15.87
2018-10-21T22:52:14.003Z,13.70
2018-10-21T22:54:43.806Z,15.60
2018-10-21T22:57:18.205Z,17.50
2018-10-21T22:59:49.542Z,18.37
2018-10-21T23:02:19.463Z,16.67
2018-10-21T23:04:49.381Z,18.60
2018-10-21T23:07:19.375Z,19.97
2018-10-21T23:09:49.115Z,17.50
2018-10-21T23:12:19.268Z,20.47
2018-10-21T23:14:49.164Z,20.47
2018-10-21T23:17:18.948Z,22.30
2018-10-21T23:19:50.215Z,19.33
2018-10-21T23:22:20.256Z,20.40
2018-10-21T23:24:50.259Z,19.33
2018-10-21T23:27:20.286Z,18.40
2018-10-21T23:29:50.049Z,18.63
2018-10-21T23:32:19.830Z,18.80
2018-10-21T23:34:49.773Z,19.43
2018-10-21T23:37:19.602Z,18.73
2018-10-21T23:39:49.496Z,19.83
2018-10-21T23:42:19.407Z,20.10
2018-10-21T23:44:49.349Z,18.73
2018-10-21T23:47:19.041Z,20.20
2018-10-21T23:49:48.934Z,17.90
2018-10-21T23:52:18.796Z,19.33
2018-10-21T23:54:48.861Z,17.07
2018-10-21T23:57:18.834Z,15.60
2018-10-21T23:59:48.631Z,17.30
